Terminal Aerodrome Forecast
Issued by NWS Twin Cities, MN

Home | Current Version | Previous Version | Graphics & Text | Print | Product List | Glossary On
Versions: 1 2 3 4 5 6 7 8 9 10 11 12 13 14 15 16
000
FTUS43 KMPX 170600 AAA
TAFEAU
TAF AMD
KEAU 170644Z 1707/1806 00000KT 3SM BR SCT070
     FM170900 00000KT 6SM BR BKN070
     FM171800 26005KT P6SM SKC
     FM180100 04003KT P6SM SKC=

USA.gov is the U.S. government's official web portal to all federal, state and local government web resources and services.